createdAt,value
2018-08-06T00:00:16.909Z,16.80
2018-08-06T00:06:03.675Z,16.80
2018-08-06T00:08:46.394Z,16.80
2018-08-06T00:11:24.142Z,16.80
2018-08-06T00:14:05.884Z,16.80
2018-08-06T00:16:58.743Z,16.80
2018-08-06T00:25:41.535Z,16.50
2018-08-06T00:29:08.395Z,16.40
2018-08-06T00:31:43.783Z,16.30
2018-08-06T00:34:22.518Z,16.20
2018-08-06T00:36:57.610Z,16.20
2018-08-06T00:39:46.307Z,16.20
2018-08-06T00:42:22.070Z,16.20
2018-08-06T00:44:54.590Z,16.20
2018-08-06T00:47:44.673Z,16.20
2018-08-06T00:50:36.359Z,16.20
2018-08-06T00:53:11.894Z,16.10
2018-08-06T00:55:46.156Z,16.10
2018-08-06T00:58:25.012Z,16.00
2018-08-06T01:00:57.695Z,16.00
2018-08-06T01:03:34.160Z,16.00
2018-08-06T01:11:17.672Z,15.90
2018-08-06T01:14:04.101Z,15.80
2018-08-06T01:16:44.963Z,15.80
2018-08-06T01:19:26.099Z,15.70
2018-08-06T01:22:00.703Z,15.70
2018-08-06T01:24:40.779Z,15.70
2018-08-06T01:27:12.670Z,15.60
2018-08-06T01:30:04.779Z,15.60
2018-08-06T01:32:38.658Z,15.70
2018-08-06T01:35:14.843Z,15.60
2018-08-06T01:40:28.350Z,15.60
2018-08-06T01:43:01.816Z,15.50
2018-08-06T01:45:41.449Z,15.40
2018-08-06T01:48:54.122Z,15.30
2018-08-06T01:51:43.827Z,15.30
2018-08-06T01:54:24.466Z,15.30
2018-08-06T01:57:06.476Z,15.20
2018-08-06T01:59:42.657Z,15.10
2018-08-06T02:02:18.438Z,15.10
2018-08-06T02:04:53.848Z,15.20
2018-08-06T02:07:25.615Z,15.20
2018-08-06T02:09:59.362Z,15.20
2018-08-06T02:12:32.106Z,15.10
2018-08-06T02:15:04.622Z,15.10
2018-08-06T02:17:43.799Z,15.10
2018-08-06T02:20:18.041Z,15.00
2018-08-06T02:22:53.305Z,15.00
2018-08-06T02:25:26.647Z,14.90
2018-08-06T02:28:00.302Z,14.90
2018-08-06T02:30:35.303Z,14.80
2018-08-06T02:33:11.356Z,14.80
2018-08-06T02:35:45.124Z,14.70
2018-08-06T02:38:20.871Z,14.70
2018-08-06T02:40:53.987Z,14.60
2018-08-06T02:43:37.076Z,14.60
2018-08-06T02:46:10.282Z,14.60
2018-08-06T02:48:47.824Z,14.50
2018-08-06T02:51:19.574Z,14.40
2018-08-06T02:53:52.252Z,14.50
2018-08-06T02:56:25.240Z,14.50
2018-08-06T02:58:58.140Z,14.60
2018-08-06T03:01:31.817Z,14.80
2018-08-06T03:04:14.521Z,14.80
2018-08-06T03:07:01.558Z,14.70
2018-08-06T03:09:44.829Z,14.50
2018-08-06T03:12:34.080Z,14.40
2018-08-06T03:15:08.915Z,14.30
2018-08-06T03:17:49.826Z,14.30
2018-08-06T03:20:23.243Z,14.20
2018-08-06T03:22:56.846Z,14.10
2018-08-06T03:25:29.258Z,14.10
2018-08-06T03:28:02.439Z,14.00
2018-08-06T03:30:35.605Z,14.00
2018-08-06T03:33:21.987Z,14.10
2018-08-06T03:35:52.992Z,14.10
2018-08-06T03:38:25.184Z,14.10
2018-08-06T03:41:04.677Z,14.00
2018-08-06T03:43:37.580Z,13.90
2018-08-06T03:48:45.503Z,14.00
2018-08-06T03:51:24.195Z,14.00
2018-08-06T03:53:57.179Z,14.00
2018-08-06T03:56:31.559Z,14.20
2018-08-06T03:59:18.315Z,14.10
2018-08-06T04:01:56.587Z,14.20
2018-08-06T04:04:28.949Z,14.10
2018-08-06T04:12:17.486Z,14.10
2018-08-06T04:15:06.208Z,14.10
2018-08-06T04:17:48.137Z,13.90
2018-08-06T04:20:22.330Z,13.90
2018-08-06T04:22:58.434Z,13.90
2018-08-06T04:25:33.408Z,13.90
2018-08-06T04:28:31.948Z,13.90
2018-08-06T04:31:06.781Z,13.90
2018-08-06T04:33:40.585Z,13.90
2018-08-06T04:36:14.843Z,13.90
2018-08-06T04:38:47.910Z,13.90
2018-08-06T04:41:19.618Z,14.00
2018-08-06T04:43:54.244Z,14.00
2018-08-06T04:46:25.787Z,14.20
2018-08-06T04:51:55.565Z,14.50
2018-08-06T04:54:28.306Z,14.50
2018-08-06T04:57:01.244Z,14.50
2018-08-06T04:59:34.443Z,14.60
2018-08-06T05:02:06.109Z,14.70
2018-08-06T05:04:49.807Z,14.90
2018-08-06T05:07:22.798Z,15.00
2018-08-06T05:09:54.871Z,15.00
2018-08-06T05:12:27.346Z,15.10
2018-08-06T05:14:59.926Z,15.10
2018-08-06T05:17:31.372Z,15.20
2018-08-06T05:20:03.583Z,15.40
2018-08-06T05:22:35.485Z,15.60
2018-08-06T05:25:07.928Z,15.60
2018-08-06T05:27:39.788Z,15.80
2018-08-06T05:30:13.586Z,15.90
2018-08-06T05:32:46.367Z,16.00
2018-08-06T05:35:19.093Z,16.30
2018-08-06T05:37:51.688Z,16.40
2018-08-06T05:40:24.204Z,16.60
2018-08-06T05:42:56.265Z,16.70
2018-08-06T05:45:28.991Z,16.80
2018-08-06T05:48:01.113Z,17.10
2018-08-06T05:50:33.285Z,17.30
2018-08-06T05:53:05.992Z,17.50
2018-08-06T05:55:39.618Z,17.80
2018-08-06T06:00:44.011Z,18.20
2018-08-06T06:03:28.171Z,18.50
2018-08-06T06:06:00.195Z,18.70
2018-08-06T06:08:31.772Z,19.00
2018-08-06T06:11:05.943Z,19.00
2018-08-06T06:13:36.913Z,19.00
2018-08-06T06:16:10.219Z,19.10
2018-08-06T06:18:42.275Z,19.10
2018-08-06T06:21:14.574Z,19.50
2018-08-06T06:23:52.483Z,19.60
2018-08-06T06:26:24.230Z,19.70
2018-08-06T06:29:02.076Z,19.90
2018-08-06T06:31:33.575Z,20.10
2018-08-06T06:34:06.107Z,20.40
2018-08-06T06:36:39.162Z,20.50
2018-08-06T06:39:13.314Z,20.50
2018-08-06T06:41:47.162Z,20.60
2018-08-06T06:44:19.359Z,20.80
2018-08-06T06:46:51.790Z,20.90
2018-08-06T06:49:24.602Z,21.10
2018-08-06T06:51:56.646Z,21.20
2018-08-06T06:54:29.135Z,21.30
2018-08-06T06:57:01.777Z,21.40
2018-08-06T06:59:33.591Z,21.50
2018-08-06T07:02:06.370Z,21.60
2018-08-06T07:04:38.512Z,21.70
2018-08-06T07:10:09.192Z,22.00
2018-08-06T07:12:40.118Z,21.90
2018-08-06T07:15:13.371Z,22.10
2018-08-06T07:17:50.038Z,22.30
2018-08-06T07:20:24.777Z,22.50
2018-08-06T07:22:56.795Z,22.60
2018-08-06T07:25:32.416Z,22.80
2018-08-06T07:28:03.551Z,22.90
2018-08-06T07:30:37.568Z,23.10
2018-08-06T07:33:07.433Z,23.30
2018-08-06T07:35:42.813Z,23.60
2018-08-06T07:38:12.313Z,23.60
2018-08-06T07:40:41.871Z,23.80
2018-08-06T07:43:12.330Z,23.90
2018-08-06T07:45:42.024Z,24.10
2018-08-06T07:48:11.565Z,24.20
2018-08-06T07:50:43.729Z,24.30
2018-08-06T07:53:13.693Z,24.50
2018-08-06T07:56:05.468Z,24.60
2018-08-06T07:58:35.578Z,24.80
2018-08-06T08:01:10.427Z,24.90
2018-08-06T08:03:39.975Z,25.10
2018-08-06T08:06:18.147Z,25.40
2018-08-06T08:08:48.244Z,25.50
2018-08-06T08:11:26.208Z,25.80
2018-08-06T08:14:00.105Z,26.00
2018-08-06T08:16:37.815Z,26.10
2018-08-06T08:19:21.571Z,26.30
2018-08-06T08:24:52.404Z,26.60
2018-08-06T08:27:39.779Z,26.80
2018-08-06T08:30:26.455Z,26.90
2018-08-06T08:33:10.217Z,27.20
2018-08-06T08:35:46.441Z,27.40
2018-08-06T08:38:24.809Z,27.40
2018-08-06T08:41:02.540Z,27.40
2018-08-06T08:43:35.915Z,27.30
2018-08-06T08:49:08.498Z,27.30
2018-08-06T08:51:46.090Z,27.40
2018-08-06T08:57:29.208Z,27.70
2018-08-06T09:00:08.672Z,27.90
2018-08-06T09:02:53.831Z,28.20
2018-08-06T09:05:33.263Z,28.40
2018-08-06T09:08:13.000Z,28.50
2018-08-06T09:10:47.069Z,28.30
2018-08-06T09:13:33.383Z,28.30
2018-08-06T09:16:03.952Z,28.30
2018-08-06T09:18:41.600Z,28.30
2018-08-06T09:21:12.117Z,28.40
2018-08-06T09:23:43.617Z,28.80
2018-08-06T09:26:23.862Z,29.80
2018-08-06T09:28:55.145Z,31.20
2018-08-06T09:31:27.996Z,32.20
2018-08-06T09:33:58.873Z,32.40
2018-08-06T09:36:36.325Z,32.80
2018-08-06T09:39:12.372Z,32.90
2018-08-06T09:41:43.253Z,32.90
2018-08-06T09:44:16.787Z,33.80
2018-08-06T09:46:47.426Z,34.70
2018-08-06T09:49:18.955Z,35.10
2018-08-06T09:51:49.038Z,35.30
2018-08-06T09:54:20.767Z,35.30
2018-08-06T09:57:00.902Z,34.20
2018-08-06T09:59:31.376Z,34.60
2018-08-06T10:02:07.580Z,34.20
2018-08-06T10:04:37.973Z,34.10
2018-08-06T10:07:08.971Z,34.20
2018-08-06T10:09:39.807Z,34.00
2018-08-06T10:12:13.215Z,34.70
2018-08-06T10:14:45.228Z,34.90
2018-08-06T10:20:13.477Z,36.20
2018-08-06T10:22:43.652Z,36.80
2018-08-06T10:25:14.449Z,36.80
2018-08-06T10:27:46.440Z,37.10
2018-08-06T10:30:19.139Z,37.30
2018-08-06T10:32:49.955Z,37.80
2018-08-06T10:35:21.401Z,37.70
2018-08-06T10:37:55.361Z,37.30
2018-08-06T10:40:25.603Z,36.80
2018-08-06T10:42:55.931Z,37.00
2018-08-06T10:45:26.326Z,37.10
2018-08-06T10:47:57.608Z,37.00
2018-08-06T10:50:28.834Z,37.20
2018-08-06T10:52:59.604Z,37.30
2018-08-06T10:55:30.200Z,37.10
2018-08-06T10:58:00.095Z,37.50
2018-08-06T11:00:29.922Z,38.10
2018-08-06T11:03:02.155Z,38.00
2018-08-06T11:05:32.655Z,38.50
2018-08-06T11:08:06.692Z,38.40
2018-08-06T11:10:37.013Z,38.00
2018-08-06T11:13:07.122Z,37.90
2018-08-06T11:15:37.058Z,38.40
2018-08-06T11:18:07.688Z,38.20
2018-08-06T11:20:37.925Z,38.40
2018-08-06T11:23:08.776Z,39.00
2018-08-06T11:25:38.624Z,39.10
2018-08-06T11:28:09.791Z,39.10
2018-08-06T11:30:39.655Z,39.50
2018-08-06T11:33:13.448Z,39.00
2018-08-06T11:35:43.494Z,38.90
2018-08-06T11:38:13.235Z,39.50
2018-08-06T11:40:42.375Z,40.10
2018-08-06T11:43:23.934Z,40.70
2018-08-06T11:45:53.436Z,40.20
2018-08-06T11:48:39.188Z,40.00
2018-08-06T11:51:08.914Z,39.60
2018-08-06T11:53:38.582Z,39.50
2018-08-06T11:56:10.637Z,39.40
2018-08-06T11:58:48.930Z,39.90
2018-08-06T12:01:19.878Z,40.40
2018-08-06T12:03:51.162Z,40.60
2018-08-06T12:06:21.829Z,41.00
2018-08-06T12:08:53.223Z,41.70
2018-08-06T12:11:24.499Z,41.90
2018-08-06T12:13:55.760Z,42.20
2018-08-06T12:16:27.037Z,42.50
2018-08-06T12:18:57.735Z,42.80
2018-08-06T12:21:29.642Z,43.00
2018-08-06T12:24:00.452Z,43.00
2018-08-06T12:26:39.760Z,41.70
2018-08-06T12:34:45.402Z,41.90
2018-08-06T12:37:16.269Z,42.30
2018-08-06T12:39:47.550Z,42.20
2018-08-06T12:42:18.064Z,42.20
2018-08-06T12:44:48.555Z,42.60
2018-08-06T12:47:19.123Z,43.30
2018-08-06T12:49:53.944Z,44.20
2018-08-06T12:52:25.690Z,44.10
2018-08-06T12:54:56.698Z,44.40
2018-08-06T12:57:28.203Z,44.50
2018-08-06T13:00:00.820Z,44.20
2018-08-06T13:02:32.956Z,43.60
2018-08-06T13:05:04.407Z,43.70
2018-08-06T13:07:35.646Z,44.10
2018-08-06T13:10:07.138Z,44.90
2018-08-06T13:12:40.128Z,44.80
2018-08-06T13:15:20.916Z,45.00
2018-08-06T13:17:52.493Z,44.60
2018-08-06T13:20:29.971Z,44.80
2018-08-06T13:23:01.289Z,44.90
2018-08-06T13:25:32.950Z,45.10
2018-08-06T13:28:04.129Z,45.70
2018-08-06T13:30:36.268Z,45.40
2018-08-06T13:33:09.053Z,44.70
2018-08-06T13:35:40.356Z,44.00
2018-08-06T13:38:11.404Z,43.70
2018-08-06T13:40:42.751Z,44.40
2018-08-06T13:43:19.406Z,44.60
2018-08-06T13:45:50.651Z,44.50
2018-08-06T13:48:34.372Z,44.20
2018-08-06T13:51:05.993Z,43.60
2018-08-06T13:53:37.602Z,43.80
2018-08-06T13:56:09.369Z,44.20
2018-08-06T13:58:40.615Z,44.90
2018-08-06T14:01:12.054Z,45.00
2018-08-06T14:03:47.052Z,44.70
2018-08-06T14:06:18.093Z,44.70
2018-08-06T14:09:07.648Z,44.90
2018-08-06T14:11:39.135Z,45.40
2018-08-06T14:14:11.040Z,46.10
2018-08-06T14:16:42.085Z,46.40
2018-08-06T14:19:12.930Z,45.60
2018-08-06T14:24:41.687Z,46.60
2018-08-06T14:27:14.164Z,46.80
2018-08-06T14:29:45.253Z,46.90
2018-08-06T14:32:16.496Z,46.70
2018-08-06T14:34:47.940Z,47.00
2018-08-06T14:37:19.228Z,47.20
2018-08-06T14:39:49.708Z,47.00
2018-08-06T14:42:21.571Z,47.20
2018-08-06T14:44:53.562Z,47.00
2018-08-06T14:47:27.355Z,46.50
2018-08-06T14:49:58.275Z,45.60
2018-08-06T14:52:29.286Z,44.80
2018-08-06T14:55:00.095Z,44.50
2018-08-06T14:57:34.391Z,45.10
2018-08-06T15:00:08.615Z,45.70
2018-08-06T15:02:39.233Z,45.50
2018-08-06T15:05:09.667Z,46.20
2018-08-06T15:07:40.097Z,46.50
2018-08-06T15:10:12.265Z,46.60
2018-08-06T15:12:42.807Z,47.30
2018-08-06T15:15:16.763Z,47.80
2018-08-06T15:17:47.844Z,47.50
2018-08-06T15:20:19.855Z,47.70
2018-08-06T15:22:50.341Z,48.00
2018-08-06T15:25:22.182Z,48.00
2018-08-06T15:27:54.323Z,48.10
2018-08-06T15:30:25.327Z,47.80
2018-08-06T15:32:59.816Z,47.80
2018-08-06T15:35:30.692Z,47.20
2018-08-06T15:38:02.238Z,47.40
2018-08-06T15:40:32.573Z,47.70
2018-08-06T15:43:06.343Z,47.70
2018-08-06T15:45:37.581Z,47.30
2018-08-06T15:48:09.068Z,47.10
2018-08-06T15:50:40.212Z,46.60
2018-08-06T15:53:10.970Z,46.40
2018-08-06T15:55:47.146Z,46.50
2018-08-06T15:58:18.443Z,46.30
2018-08-06T16:00:50.430Z,45.60
2018-08-06T16:03:21.305Z,45.60
2018-08-06T16:05:52.691Z,45.00
2018-08-06T16:08:23.988Z,44.80
2018-08-06T16:10:57.126Z,45.00
2018-08-06T16:13:28.653Z,44.80
2018-08-06T16:16:00.660Z,45.00
2018-08-06T16:18:32.403Z,44.90
2018-08-06T16:21:04.078Z,44.40
2018-08-06T16:23:35.806Z,44.40
2018-08-06T16:26:07.183Z,43.80
2018-08-06T16:28:43.341Z,43.90
2018-08-06T16:31:15.604Z,44.30
2018-08-06T16:33:46.037Z,45.10
2018-08-06T16:36:17.339Z,45.10
2018-08-06T16:38:47.574Z,45.20
2018-08-06T16:41:17.903Z,44.90
2018-08-06T16:43:48.157Z,44.00
2018-08-06T16:46:19.130Z,44.50
2018-08-06T16:48:49.053Z,44.60
2018-08-06T16:51:18.968Z,45.20
2018-08-06T16:53:48.996Z,45.10
2018-08-06T16:56:25.459Z,44.90
2018-08-06T16:58:59.663Z,44.70
2018-08-06T17:01:30.350Z,44.40
2018-08-06T17:04:00.963Z,44.70
2018-08-06T17:06:31.772Z,44.60
2018-08-06T17:09:01.103Z,43.50
2018-08-06T17:14:00.799Z,44.10
2018-08-06T17:16:31.269Z,44.60
2018-08-06T17:21:35.470Z,44.20
2018-08-06T17:24:05.490Z,44.20
2018-08-06T17:26:36.484Z,44.40
2018-08-06T17:29:05.998Z,43.90
2018-08-06T17:31:35.950Z,43.90
2018-08-06T17:34:07.275Z,43.60
2018-08-06T17:36:41.286Z,43.00
2018-08-06T17:39:12.157Z,42.90
2018-08-06T17:41:42.328Z,43.10
2018-08-06T17:44:12.492Z,42.30
2018-08-06T17:46:45.173Z,41.40
2018-08-06T17:49:16.407Z,40.30
2018-08-06T17:51:48.200Z,39.20
2018-08-06T17:54:18.991Z,38.40
2018-08-06T17:56:50.816Z,37.60
2018-08-06T17:59:21.684Z,36.80
2018-08-06T18:01:52.929Z,36.20
2018-08-06T18:04:24.477Z,35.60
2018-08-06T18:06:55.682Z,35.20
2018-08-06T18:09:31.349Z,34.90
2018-08-06T18:12:02.121Z,34.60
2018-08-06T18:14:33.008Z,34.50
2018-08-06T18:17:03.826Z,34.30
2018-08-06T18:19:47.522Z,34.10
2018-08-06T18:22:37.380Z,33.90
2018-08-06T18:25:13.036Z,33.80
2018-08-06T18:27:46.538Z,33.50
2018-08-06T18:30:18.425Z,33.30
2018-08-06T18:32:48.398Z,33.10
2018-08-06T18:38:18.495Z,32.70
2018-08-06T18:40:48.912Z,32.50
2018-08-06T18:43:20.012Z,32.20
2018-08-06T18:45:59.895Z,32.10
2018-08-06T18:48:40.979Z,32.00
2018-08-06T18:51:19.734Z,31.80
2018-08-06T18:53:52.165Z,31.70
2018-08-06T18:56:23.867Z,31.50
2018-08-06T18:58:59.290Z,31.20
2018-08-06T19:01:33.554Z,30.90
2018-08-06T19:04:04.705Z,30.50
2018-08-06T19:06:35.260Z,30.20
2018-08-06T19:09:17.702Z,29.80
2018-08-06T19:11:48.727Z,29.50
2018-08-06T19:14:24.179Z,29.20
2018-08-06T19:16:54.933Z,29.00
2018-08-06T19:19:27.165Z,28.70
2018-08-06T19:22:16.455Z,28.50
2018-08-06T19:24:52.451Z,28.20
2018-08-06T19:27:23.346Z,28.20
2018-08-06T19:29:54.374Z,28.00
2018-08-06T19:32:28.915Z,27.70
2018-08-06T19:34:59.488Z,27.50
2018-08-06T19:37:36.500Z,27.40
2018-08-06T19:40:09.275Z,27.50
2018-08-06T19:42:45.429Z,27.40
2018-08-06T19:45:20.689Z,27.20
2018-08-06T19:47:52.136Z,27.00
2018-08-06T19:50:38.125Z,26.90
2018-08-06T19:53:09.773Z,26.70
2018-08-06T19:55:45.408Z,26.40
2018-08-06T19:58:18.033Z,26.20
2018-08-06T20:00:49.133Z,26.00
2018-08-06T20:03:20.535Z,26.00
2018-08-06T20:05:52.985Z,25.80
2018-08-06T20:08:25.983Z,25.60
2018-08-06T20:10:57.446Z,25.70
2018-08-06T20:13:29.993Z,25.80
2018-08-06T20:16:04.529Z,25.70
2018-08-06T20:18:42.219Z,25.60
2018-08-06T20:21:21.664Z,25.50
2018-08-06T20:23:53.896Z,25.50
2018-08-06T20:26:31.308Z,25.30
2018-08-06T20:29:07.824Z,25.20
2018-08-06T20:31:45.260Z,25.10
2018-08-06T20:34:22.129Z,24.90
2018-08-06T20:39:52.889Z,24.70
2018-08-06T20:42:33.909Z,24.50
2018-08-06T20:45:10.328Z,24.40
2018-08-06T20:47:49.783Z,24.50
2018-08-06T20:50:23.850Z,24.60
2018-08-06T20:52:58.900Z,24.40
2018-08-06T20:55:39.264Z,24.40
2018-08-06T20:58:16.301Z,24.50
2018-08-06T21:00:52.170Z,24.30
2018-08-06T21:03:45.908Z,24.30
2018-08-06T21:06:16.787Z,24.20
2018-08-06T21:08:48.685Z,24.30
2018-08-06T21:11:19.896Z,24.20
2018-08-06T21:13:51.280Z,24.00
2018-08-06T21:16:24.921Z,23.90
2018-08-06T21:18:56.625Z,23.80
2018-08-06T21:21:27.604Z,23.70
2018-08-06T21:24:01.809Z,23.70
2018-08-06T21:26:32.838Z,23.60
2018-08-06T21:29:08.655Z,23.30
2018-08-06T21:31:52.862Z,23.20
2018-08-06T21:34:26.810Z,23.10
2018-08-06T21:37:02.127Z,23.10
2018-08-06T21:39:33.617Z,23.20
2018-08-06T21:42:04.819Z,23.20
2018-08-06T21:44:37.562Z,23.10
2018-08-06T21:47:09.108Z,23.10
2018-08-06T21:49:43.487Z,23.10
2018-08-06T21:52:16.121Z,22.90
2018-08-06T21:54:47.577Z,22.80
2018-08-06T21:57:19.386Z,22.50
2018-08-06T21:59:51.502Z,22.40
2018-08-06T22:02:24.872Z,22.20
2018-08-06T22:04:56.144Z,22.10
2018-08-06T22:07:34.160Z,22.00
2018-08-06T22:10:06.137Z,21.90
2018-08-06T22:12:45.327Z,21.90
2018-08-06T22:18:19.878Z,21.70
2018-08-06T22:20:51.847Z,21.60
2018-08-06T22:23:23.301Z,21.60
2018-08-06T22:25:55.226Z,21.60
2018-08-06T22:28:26.732Z,21.60
2018-08-06T22:30:57.563Z,21.50
2018-08-06T22:33:29.884Z,21.50
2018-08-06T22:36:00.985Z,21.50
2018-08-06T22:38:32.412Z,21.40
2018-08-06T22:41:03.907Z,21.30
2018-08-06T22:43:35.253Z,21.20
2018-08-06T22:46:06.620Z,21.20
2018-08-06T22:48:39.051Z,21.20
2018-08-06T22:51:13.959Z,21.10
2018-08-06T22:53:44.994Z,21.10
2018-08-06T22:58:58.254Z,21.00
2018-08-06T23:01:38.889Z,21.00
2018-08-06T23:04:17.300Z,21.00
2018-08-06T23:06:48.217Z,21.00
2018-08-06T23:09:19.542Z,21.00
2018-08-06T23:11:50.821Z,21.00
2018-08-06T23:14:21.615Z,20.90
2018-08-06T23:16:53.278Z,20.90
2018-08-06T23:19:27.592Z,20.90
2018-08-06T23:21:59.434Z,20.90
2018-08-06T23:24:32.999Z,20.90
2018-08-06T23:27:04.653Z,20.80
2018-08-06T23:29:40.238Z,20.80
2018-08-06T23:32:12.816Z,20.80
2018-08-06T23:34:47.327Z,20.70
2018-08-06T23:37:22.482Z,20.60
2018-08-06T23:39:53.443Z,20.50
2018-08-06T23:42:24.448Z,20.50
2018-08-06T23:44:55.788Z,20.40
2018-08-06T23:47:27.847Z,20.40
2018-08-06T23:50:00.062Z,20.40
2018-08-06T23:52:31.828Z,20.40
2018-08-06T23:55:03.222Z,20.40
2018-08-06T23:57:35.180Z,20.40
